Time;durP1;ratioP1;P1;durP2;ratioP2;P2;SDS_P1;SDS_P2;PMS_P1;PMS_P2;Temp;Humidity;BMP_temperature;BMP_pressure;BME280_temperature;BME280_humidity;BME280_pressure;Samples;Min_cycle;Max_cycle;Signal;HPM_P1;HPM_P2
2023/10/21 00:01:18;;;;;;;23.45;18.08;;;11.00;99.90;;;-141.84;100.00;119224.81;5003659;28;20242;-59
2023/10/21 00:03:47;;;;;;;24.90;19.70;;;11.00;99.90;;;-141.84;100.00;119224.81;5003233;28;20738;-61
2023/10/21 00:06:15;;;;;;;22.20;18.35;;;11.00;99.90;;;-141.84;100.00;119224.81;4996202;28;20225;-60
2023/10/21 00:08:43;;;;;;;18.67;16.27;;;11.00;99.90;;;-141.84;100.00;119224.81;5003338;28;20242;-61
2023/10/21 00:11:12;;;;;;;19.60;15.70;;;11.10;99.90;;;-141.84;100.00;119224.81;4994974;28;20223;-59
2023/10/21 00:13:40;;;;;;;21.67;16.23;;;11.00;99.90;;;-141.84;100.00;119224.81;4983891;28;20313;-60
2023/10/21 00:16:11;;;;;;;22.42;16.65;;;11.00;99.90;;;-141.84;100.00;119224.81;4975919;28;20227;-60
2023/10/21 00:18:39;;;;;;;17.10;15.27;;;11.00;99.90;;;-141.84;100.00;119224.81;4983748;28;20208;-61
2023/10/21 00:21:07;;;;;;;18.50;14.87;;;11.00;99.90;;;-141.84;100.00;119224.81;4984267;28;20207;-60
2023/10/21 00:23:35;;;;;;;16.80;14.55;;;10.90;99.90;;;-141.84;100.00;119224.81;4993921;28;20237;-60
2023/10/21 00:26:04;;;;;;;18.38;15.15;;;10.90;99.90;;;-141.84;100.00;119224.81;4995446;28;20600;-60
2023/10/21 00:28:32;;;;;;;18.70;15.00;;;10.90;99.90;;;-141.84;100.00;119224.81;5002981;28;20234;-60
2023/10/21 00:31:03;;;;;;;18.25;15.48;;;10.80;99.90;;;-141.84;100.00;119224.81;5002195;28;20722;-60
2023/10/21 00:33:33;;;;;;;18.08;15.60;;;10.80;99.90;;;-141.84;100.00;119224.81;5003478;28;20261;-59
2023/10/21 00:36:03;;;;;;;20.43;15.40;;;10.80;99.90;;;-141.84;100.00;119224.81;4995339;28;20730;-60
2023/10/21 00:38:32;;;;;;;16.53;14.33;;;10.80;99.90;;;-141.84;100.00;119224.81;5002661;28;20304;-60
2023/10/21 00:41:00;;;;;;;17.27;14.13;;;10.70;99.90;;;-141.84;100.00;119224.81;4996135;28;20231;-60
2023/10/21 00:43:36;;;;;;;15.87;14.07;;;10.80;99.90;;;-141.84;100.00;119224.81;4983673;28;20239;-59
2023/10/21 00:46:11;;;;;;;18.23;13.98;;;10.70;99.90;;;-141.84;100.00;119224.81;4995004;28;20641;-59
2023/10/21 00:48:41;;;;;;;18.30;13.93;;;10.70;99.90;;;-141.84;100.00;119224.81;5003207;28;20221;-61
2023/10/21 00:51:11;;;;;;;17.48;14.32;;;10.70;99.90;;;-141.84;100.00;119224.81;5003401;28;20206;-60
2023/10/21 00:53:40;;;;;;;17.07;13.87;;;10.80;99.90;;;-141.84;100.00;119224.81;5002808;28;20730;-60
2023/10/21 00:56:09;;;;;;;17.17;14.13;;;10.80;99.90;;;-141.84;100.00;119224.81;4994883;28;20233;-59
2023/10/21 00:58:37;;;;;;;17.90;14.07;;;10.80;99.90;;;-141.84;100.00;119224.81;5002199;28;20257;-59
2023/10/21 01:01:08;;;;;;;17.93;14.23;;;10.90;99.90;;;-141.84;100.00;119224.81;5002544;28;20346;-61
2023/10/21 01:03:38;;;;;;;15.57;12.90;;;10.90;99.90;;;-141.84;100.00;119224.81;5001354;28;20725;-59
2023/10/21 01:06:08;;;;;;;15.00;12.47;;;11.00;99.90;;;-141.84;100.00;119224.81;4994770;28;20231;-60
2023/10/21 01:08:41;;;;;;;13.70;11.55;;;10.90;99.90;;;-141.84;100.00;119224.81;5002845;28;20242;-59
2023/10/21 01:11:09;;;;;;;15.27;12.07;;;10.90;99.90;;;-141.84;100.00;119224.81;5006061;28;20706;-60
2023/10/21 01:13:38;;;;;;;14.90;11.83;;;10.90;99.90;;;-141.84;100.00;119224.81;5006486;28;20250;-61
2023/10/21 01:16:06;;;;;;;13.67;11.53;;;10.70;99.90;;;-141.84;100.00;119224.81;4998342;28;20232;-60
2023/10/21 01:18:35;;;;;;;12.90;10.30;;;10.90;99.90;;;-141.84;100.00;119224.81;5006484;28;20214;-60
2023/10/21 01:21:05;;;;;;;11.65;9.57;;;11.00;99.90;;;-141.84;100.00;119224.81;5006595;28;20234;-60
2023/10/21 01:23:35;;;;;;;12.80;9.60;;;10.90;99.90;;;-141.84;100.00;119224.81;5005966;28;20238;-59
2023/10/21 01:26:04;;;;;;;12.30;9.80;;;11.20;99.90;;;-141.84;100.00;119224.81;4999331;28;20261;-60
2023/10/21 01:28:33;;;;;;;10.93;8.80;;;11.20;99.90;;;-141.84;100.00;119224.81;5006351;28;20250;-59
2023/10/21 01:31:02;;;;;;;9.77;8.30;;;11.30;99.90;;;-141.84;100.00;119224.81;5006269;28;20218;-59
2023/10/21 01:33:30;;;;;;;10.17;8.73;;;11.30;99.90;;;-141.84;100.00;119224.81;5006504;28;20298;-60
2023/10/21 01:35:59;;;;;;;10.00;7.82;;;11.30;99.90;;;-141.84;100.00;119224.81;4997922;28;20599;-61
2023/10/21 01:38:27;;;;;;;10.55;7.75;;;11.30;99.90;;;-141.84;100.00;119224.81;5005916;28;20258;-60
2023/10/21 01:40:56;;;;;;;8.93;7.65;;;11.30;99.90;;;-141.84;100.00;119224.81;5006063;28;20235;-59
2023/10/21 01:43:25;;;;;;;9.50;7.23;;;11.50;99.90;;;-141.84;100.00;119224.81;5005846;28;20317;-58
2023/10/21 01:45:53;;;;;;;8.67;6.90;;;11.30;99.90;;;-141.84;100.00;119224.81;4990187;28;20278;-59
2023/10/21 01:48:21;;;;;;;10.13;7.43;;;11.10;99.90;;;-141.84;100.00;119224.81;4983890;28;20261;-60
2023/10/21 01:50:49;;;;;;;8.32;7.30;;;11.20;99.90;;;-141.84;100.00;119224.81;4959395;28;20659;-59
2023/10/21 01:53:18;;;;;;;7.80;6.63;;;11.10;99.90;;;-141.84;100.00;119224.81;4980009;28;20239;-58
2023/10/21 01:55:46;;;;;;;8.68;7.57;;;11.10;99.90;;;-141.84;100.00;119224.81;4984335;28;20318;-61
2023/10/21 01:58:15;;;;;;;7.72;7.00;;;11.10;99.90;;;-141.84;100.00;119224.81;4978282;28;21029;-60
2023/10/21 02:00:44;;;;;;;12.27;7.60;;;11.10;99.90;;;-141.84;100.00;119224.81;4986009;28;20747;-60
2023/10/21 02:03:12;;;;;;;8.00;7.20;;;11.20;99.90;;;-141.84;100.00;119224.81;4986095;28;20245;-59
2023/10/21 02:05:40;;;;;;;9.23;7.28;;;11.20;99.90;;;-141.84;100.00;119224.81;4985953;28;20231;-60
2023/10/21 02:08:08;;;;;;;8.75;7.85;;;11.20;99.90;;;-141.84;100.00;119224.81;4978141;28;20250;-60
2023/10/21 02:10:41;;;;;;;8.18;7.28;;;11.20;99.90;;;-141.84;100.00;119224.81;4986036;28;20565;-59
2023/10/21 02:13:09;;;;;;;8.40;7.13;;;11.10;99.90;;;-141.84;100.00;119224.81;4985829;28;20251;-59
2023/10/21 02:15:38;;;;;;;8.98;7.43;;;11.20;99.90;;;-141.84;100.00;119224.81;4985960;28;20247;-59
2023/10/21 02:18:07;;;;;;;8.18;7.38;;;11.20;99.90;;;-141.84;100.00;119224.81;4978277;28;20239;-59
2023/10/21 02:20:38;;;;;;;8.48;6.88;;;11.30;99.90;;;-141.84;100.00;119224.81;4985459;28;20231;-60
2023/10/21 02:23:06;;;;;;;8.77;7.87;;;11.30;99.90;;;-141.84;100.00;119224.81;4985669;28;20255;-60
2023/10/21 02:25:34;;;;;;;9.60;7.87;;;11.30;99.90;;;-141.84;100.00;119224.81;4983138;28;20274;-61
2023/10/21 02:28:03;;;;;;;10.90;8.33;;;11.30;99.90;;;-141.84;100.00;119224.81;4978010;28;20255;-60
2023/10/21 02:30:31;;;;;;;8.80;7.78;;;11.30;99.90;;;-141.84;100.00;119224.81;4985965;28;20246;-60
2023/10/21 02:33:03;;;;;;;8.20;7.40;;;11.30;99.90;;;-141.84;100.00;119224.81;4985527;28;20736;-60
2023/10/21 02:35:34;;;;;;;8.60;7.68;;;11.30;99.90;;;-141.84;100.00;119224.81;4985646;28;20227;-60
2023/10/21 02:38:02;;;;;;;9.03;7.97;;;11.30;99.90;;;-141.84;100.00;119224.81;4977832;28;20242;-61
2023/10/21 02:40:31;;;;;;;9.60;8.20;;;11.30;99.90;;;-141.84;100.00;119224.81;4985517;28;20293;-61
2023/10/21 02:42:59;;;;;;;9.80;8.32;;;11.30;99.90;;;-141.84;100.00;119224.81;4985100;28;20235;-59
2023/10/21 02:45:27;;;;;;;12.48;9.80;;;11.30;99.90;;;-141.84;100.00;119224.81;4984878;28;20311;-60
2023/10/21 02:47:55;;;;;;;10.65;9.02;;;11.40;99.90;;;-141.84;100.00;119224.81;4977029;28;20603;-60
2023/10/21 02:50:26;;;;;;;12.65;9.98;;;11.40;99.90;;;-141.84;100.00;119224.81;4985681;28;20231;-60
2023/10/21 02:52:54;;;;;;;10.20;8.80;;;11.40;99.90;;;-141.84;100.00;119224.81;4985280;28;20343;-60
2023/10/21 02:55:23;;;;;;;10.10;8.52;;;11.40;99.90;;;-141.84;100.00;119224.81;4985473;28;20239;-59
2023/10/21 02:57:51;;;;;;;11.10;8.90;;;11.30;99.90;;;-141.84;100.00;119224.81;4985140;28;20335;-60
2023/10/21 03:00:21;;;;;;;10.20;9.20;;;11.30;99.90;;;-141.84;100.00;119224.81;4980645;28;20234;-60
2023/10/21 03:02:50;;;;;;;13.02;10.15;;;11.20;99.90;;;-141.84;100.00;119224.81;4985019;28;20241;-60
2023/10/21 03:05:20;;;;;;;16.52;10.65;;;11.10;99.90;;;-141.84;100.00;119224.81;4983728;28;20240;-61
2023/10/21 03:07:49;;;;;;;12.82;9.95;;;11.10;99.90;;;-141.84;100.00;119224.81;4969329;28;20270;-59
2023/10/21 03:10:18;;;;;;;12.30;10.30;;;11.10;99.90;;;-141.84;100.00;119224.81;4977007;28;20266;-61
2023/10/21 03:12:46;;;;;;;12.88;10.93;;;11.00;99.90;;;-141.84;100.00;119224.81;4984547;28;20298;-60
2023/10/21 03:15:14;;;;;;;13.70;10.40;;;11.00;99.90;;;-141.84;100.00;119224.81;4985295;28;20289;-59
2023/10/21 03:17:42;;;;;;;11.60;10.02;;;11.10;99.90;;;-141.84;100.00;119224.81;4984033;28;20223;-59
2023/10/21 03:20:11;;;;;;;13.10;10.82;;;10.90;99.90;;;-141.84;100.00;119224.81;4976516;28;20231;-59
2023/10/21 03:22:40;;;;;;;15.30;10.90;;;10.90;99.90;;;-141.84;100.00;119224.81;4983421;28;20235;-60
2023/10/21 03:25:11;;;;;;;12.88;10.85;;;10.90;99.90;;;-141.84;100.00;119224.81;4984567;28;20237;-61
2023/10/21 03:27:39;;;;;;;14.45;12.07;;;10.90;99.90;;;-141.84;100.00;119224.81;4985156;28;20254;-61
2023/10/21 03:30:09;;;;;;;12.95;10.60;;;11.00;99.90;;;-141.84;100.00;119224.81;4977214;28;20242;-60
2023/10/21 03:32:37;;;;;;;13.98;11.10;;;11.10;99.90;;;-141.84;100.00;119224.81;4984095;28;20291;-59
2023/10/21 03:35:06;;;;;;;16.13;11.97;;;11.20;99.90;;;-141.84;100.00;119224.81;4984457;28;20271;-60
2023/10/21 03:37:35;;;;;;;18.30;12.68;;;11.20;99.90;;;-141.84;100.00;119224.81;4983849;28;20266;-60
2023/10/21 03:40:05;;;;;;;15.45;12.93;;;11.20;99.90;;;-141.84;100.00;119224.81;4976984;28;20331;-60
2023/10/21 03:42:35;;;;;;;13.87;12.23;;;11.20;99.90;;;-141.84;100.00;119224.81;4985158;28;20251;-60
2023/10/21 03:45:04;;;;;;;13.03;11.33;;;11.20;99.90;;;-141.84;100.00;119224.81;4984335;28;20736;-60
2023/10/21 03:47:33;;;;;;;12.82;10.65;;;11.20;99.90;;;-141.84;100.00;119224.81;4983772;28;20242;-62
2023/10/21 03:50:02;;;;;;;13.60;11.30;;;11.10;99.90;;;-141.84;100.00;119224.81;4976571;28;20263;-60
2023/10/21 03:52:31;;;;;;;15.45;11.73;;;11.00;99.90;;;-141.84;100.00;119224.81;4983059;28;20242;-60
2023/10/21 03:54:59;;;;;;;12.60;10.80;;;10.90;99.90;;;-141.84;100.00;119224.81;4984081;28;20793;-60
2023/10/21 03:57:27;;;;;;;12.13;10.37;;;10.90;99.90;;;-141.84;100.00;119224.81;4984708;28;20269;-60
2023/10/21 03:59:57;;;;;;;14.23;11.30;;;10.80;99.90;;;-141.84;100.00;119224.81;4976693;28;20273;-58
2023/10/21 04:02:25;;;;;;;14.45;11.15;;;10.70;99.90;;;-141.84;100.00;119222.75;4984322;28;20231;-60
2023/10/21 04:04:53;;;;;;;13.15;10.68;;;10.70;99.90;;;-141.84;100.00;119222.75;4984450;28;20223;-60
2023/10/21 04:07:23;;;;;;;13.23;11.00;;;10.60;99.90;;;-141.84;100.00;119222.75;4983292;28;20227;-60
2023/10/21 04:09:51;;;;;;;13.57;11.85;;;10.70;99.90;;;-141.84;100.00;119222.75;4984001;28;20207;-60
2023/10/21 04:12:19;;;;;;;15.27;12.20;;;10.60;99.90;;;-141.84;100.00;119222.75;4978317;28;20734;-60
2023/10/21 04:14:47;;;;;;;15.03;11.60;;;10.60;99.90;;;-141.84;100.00;119222.75;4983755;28;20317;-59
2023/10/21 04:17:17;;;;;;;15.07;11.83;;;10.60;99.90;;;-141.84;100.00;119222.75;4983856;28;20238;-61
2023/10/21 04:19:45;;;;;;;13.57;11.97;;;10.60;99.90;;;-141.84;100.00;119222.75;4983523;28;20241;-60
2023/10/21 04:22:13;;;;;;;14.52;12.25;;;10.60;99.90;;;-141.84;100.00;119222.75;4974954;28;20297;-60
2023/10/21 04:24:41;;;;;;;17.13;11.98;;;10.60;99.90;;;-141.84;100.00;119222.75;4983749;28;20689;-60
2023/10/21 04:27:10;;;;;;;14.80;11.55;;;10.60;99.90;;;-141.84;100.00;119222.75;4984324;28;20298;-60
2023/10/21 04:29:38;;;;;;;16.80;12.67;;;10.50;99.90;;;-141.84;100.00;119222.75;4984434;28;20239;-60
2023/10/21 04:32:06;;;;;;;15.20;11.97;;;10.60;99.90;;;-141.84;100.00;119222.75;4956110;28;20227;-60
2023/10/21 04:34:36;;;;;;;16.90;12.23;;;10.70;99.90;;;-141.84;100.00;119222.75;4963861;28;20314;-60
2023/10/21 04:37:04;;;;;;;16.23;12.13;;;10.70;99.90;;;-141.84;100.00;119222.75;4965524;28;20286;-60
2023/10/21 04:39:34;;;;;;;16.00;12.30;;;10.80;99.90;;;-141.84;100.00;119222.75;4983830;28;20207;-60
2023/10/21 04:42:04;;;;;;;14.15;11.30;;;10.80;99.90;;;-141.84;100.00;119222.75;4975955;28;20761;-59
2023/10/21 04:44:32;;;;;;;13.87;11.40;;;10.80;99.90;;;-141.84;100.00;119222.75;4983448;28;20237;-60
2023/10/21 04:47:01;;;;;;;15.27;11.53;;;10.80;99.90;;;-141.84;100.00;119222.75;4983609;28;20247;-59
2023/10/21 04:49:29;;;;;;;13.90;11.17;;;10.90;99.90;;;-141.84;100.00;119222.75;4983256;28;20314;-60
2023/10/21 04:51:58;;;;;;;14.30;11.13;;;10.80;99.90;;;-141.84;100.00;119222.75;4974747;28;20215;-60
2023/10/21 04:54:27;;;;;;;14.03;10.97;;;10.80;99.90;;;-141.84;100.00;119222.75;4984028;28;20354;-59
2023/10/21 04:56:56;;;;;;;14.37;10.77;;;10.80;99.90;;;-141.84;100.00;119222.75;4983437;28;20722;-60
2023/10/21 04:59:24;;;;;;;11.00;9.35;;;10.80;99.90;;;-141.84;100.00;119222.75;4983153;28;20231;-60
2023/10/21 05:01:52;;;;;;;13.10;10.00;;;10.80;99.90;;;-141.84;100.00;119222.75;4983665;28;20338;-59
2023/10/21 05:04:20;;;;;;;11.70;9.37;;;10.80;99.90;;;-141.84;100.00;119222.75;4980128;28;20570;-61
2023/10/21 05:06:49;;;;;;;12.50;9.90;;;10.80;99.90;;;-141.84;100.00;119222.75;4982599;28;20227;-60
2023/10/21 05:09:19;;;;;;;11.27;9.07;;;10.80;99.90;;;-141.84;100.00;119222.75;4983573;28;20207;-60
2023/10/21 05:11:47;;;;;;;10.35;9.15;;;10.80;99.90;;;-141.84;100.00;119222.75;4982688;28;20798;-65
2023/10/21 05:14:16;;;;;;;10.90;8.80;;;10.90;99.90;;;-141.84;100.00;119222.75;4975470;28;20277;-66
2023/10/21 05:16:44;;;;;;;9.63;8.53;;;10.90;99.90;;;-141.84;100.00;119222.75;4982885;28;20707;-66
2023/10/21 05:19:12;;;;;;;11.13;8.40;;;10.90;99.90;;;-141.84;100.00;119222.75;4982652;28;20562;-66
2023/10/21 05:21:41;;;;;;;8.60;7.77;;;10.90;99.90;;;-141.84;100.00;119222.75;4982112;28;20302;-65
2023/10/21 05:24:09;;;;;;;10.32;7.82;;;10.90;99.90;;;-141.84;100.00;119222.75;4975303;28;20208;-65
2023/10/21 05:26:39;;;;;;;7.88;7.07;;;10.80;99.90;;;-141.84;100.00;119222.75;4982866;28;20358;-66
2023/10/21 05:29:07;;;;;;;8.37;7.33;;;10.80;99.90;;;-141.84;100.00;119222.75;4982766;28;20323;-66
2023/10/21 05:31:37;;;;;;;9.70;7.50;;;10.80;99.90;;;-141.84;100.00;119222.75;4982546;28;20262;-66
2023/10/21 05:34:06;;;;;;;11.23;7.80;;;10.80;99.90;;;-141.84;100.00;119222.75;4974960;28;20318;-66
2023/10/21 05:36:34;;;;;;;7.85;7.05;;;10.80;99.90;;;-141.84;100.00;119222.75;4983187;28;20212;-66
2023/10/21 05:39:04;;;;;;;8.67;7.20;;;10.70;99.90;;;-141.84;100.00;119222.75;4982808;28;20266;-65
2023/10/21 05:41:33;;;;;;;8.00;6.93;;;10.70;99.90;;;-141.84;100.00;119222.75;4982715;28;20310;-67
2023/10/21 05:44:02;;;;;;;7.25;6.55;;;10.60;99.90;;;-141.84;100.00;119222.75;4975363;28;20642;-66
2023/10/21 05:46:30;;;;;;;6.80;5.97;;;10.60;99.90;;;-141.84;100.00;119222.75;4982422;28;20249;-67
2023/10/21 05:48:59;;;;;;;7.40;6.35;;;10.60;99.90;;;-141.84;100.00;119222.75;4982440;28;20310;-65
2023/10/21 05:51:27;;;;;;;6.50;5.90;;;10.70;99.90;;;-141.84;100.00;119222.75;4982500;28;20212;-66
2023/10/21 05:53:56;;;;;;;6.00;5.47;;;10.70;99.90;;;-141.84;100.00;119222.75;4978199;28;20238;-63
2023/10/21 05:56:24;;;;;;;6.10;5.20;;;10.80;99.90;;;-141.84;100.00;119222.75;4982991;28;20749;-66
2023/10/21 05:58:53;;;;;;;7.13;4.90;;;10.90;99.90;;;-141.84;100.00;119222.75;4986596;28;20710;-66
2023/10/21 06:01:23;;;;;;;5.00;4.43;;;11.00;99.90;;;-141.84;100.00;119222.75;4986435;28;20235;-65
2023/10/21 06:03:51;;;;;;;4.53;4.13;;;11.00;99.90;;;-141.84;100.00;119222.75;4985627;28;20686;-65
2023/10/21 06:06:19;;;;;;;5.28;3.75;;;11.10;99.90;;;-141.84;100.00;119222.75;4981206;28;20707;-59
2023/10/21 06:08:48;;;;;;;3.92;3.53;;;11.10;99.90;;;-141.84;100.00;119222.75;4986320;28;20228;-60
2023/10/21 06:11:17;;;;;;;3.90;3.50;;;11.20;99.90;;;-141.84;100.00;119222.75;4986087;28;20235;-60
2023/10/21 06:13:45;;;;;;;2.97;2.78;;;11.30;99.90;;;-141.84;100.00;119222.75;4985754;28;20251;-60
2023/10/21 06:16:13;;;;;;;2.90;2.70;;;11.40;99.90;;;-141.84;100.00;118956.03;4978020;28;20822;-60
2023/10/21 06:18:43;;;;;;;3.27;2.97;;;11.40;99.90;;;-141.84;100.00;118956.03;4985642;28;20207;-61
2023/10/21 06:21:11;;;;;;;3.83;3.15;;;11.40;99.90;;;-141.84;100.00;118956.03;4986270;28;20218;-60
2023/10/21 06:23:41;;;;;;;2.63;2.42;;;11.40;99.90;;;-141.84;100.00;118956.03;4985796;28;20322;-60
2023/10/21 06:26:12;;;;;;;2.65;2.45;;;11.40;99.90;;;-141.84;100.00;118956.03;4977851;28;20234;-60
2023/10/21 06:28:41;;;;;;;2.50;2.30;;;11.40;99.90;;;-141.84;100.00;118689.38;4985994;28;20227;-60
2023/10/21 06:31:09;;;;;;;1.90;1.80;;;11.50;99.90;;;-141.84;100.00;118689.38;4985848;28;20310;-65
2023/10/21 06:33:38;;;;;;;3.22;2.75;;;11.60;99.90;;;-141.84;100.00;117889.44;4985255;28;20215;-67
2023/10/21 06:36:08;;;;;;;2.20;2.00;;;11.70;99.90;;;-141.84;100.00;117356.25;4978926;28;20235;-67
2023/10/21 06:38:37;;;;;;;1.77;1.67;;;11.80;99.90;;;-141.84;100.00;114158.53;4970928;28;20232;-66
2023/10/21 06:41:06;;;;;;;2.03;1.85;;;11.90;99.90;;;-141.84;100.00;108302.56;4977491;28;20263;-65
2023/10/21 06:43:42;;;;;;;2.22;1.83;;;12.00;99.90;;;-141.84;100.00;102986.25;4985310;28;20231;-66
2023/10/21 06:46:13;;;;;;;2.28;2.00;;;12.10;99.90;;;-141.84;100.00;88137.56;4977889;28;20555;-66
2023/10/21 06:48:41;;;;;;;1.98;1.80;;;12.30;99.90;;;-141.84;100.00;81526.28;4984966;28;20735;-66
2023/10/21 06:51:13;;;;;;;1.70;1.60;;;12.40;99.90;;;-141.84;100.00;73870.81;4985408;28;20714;-66
2023/10/21 06:53:41;;;;;;;2.22;1.45;;;12.50;99.90;;;-141.84;100.00;67019.72;4985350;28;20468;-66
2023/10/21 06:56:12;;;;;;;3.95;1.30;;;12.70;99.90;;;-141.84;99.16;57290.34;4977020;28;20263;-66
2023/10/21 06:58:41;;;;;;;2.63;1.50;;;12.80;99.90;;;-141.84;98.28;44442.13;4985379;28;20226;-66
2023/10/21 07:01:09;;;;;;;1.50;1.40;;;12.90;99.90;;;-141.84;92.98;17623.56;4985094;28;20230;-66
2023/10/21 07:03:37;;;;;;;2.15;1.38;;;13.10;99.90;;;-141.84;92.16;17392.03;4985379;28;20231;-65
2023/10/21 07:06:06;;;;;;;2.08;1.20;;;13.30;99.90;;;-141.84;90.98;17461.09;4957985;28;20763;-66
2023/10/21 07:08:36;;;;;;;2.60;1.50;;;13.40;99.90;;;-141.84;88.88;17938.44;4965636;28;20244;-66
2023/10/21 07:11:05;;;;;;;2.58;1.30;;;13.50;99.90;;;-141.84;88.11;18102.97;4976922;28;20725;-65
2023/10/21 07:13:33;;;;;;;1.17;1.08;;;13.70;99.90;;;-141.84;86.11;18533.66;4985366;28;20255;-65
2023/10/21 07:16:07;;;;;;;1.30;1.17;;;13.70;99.90;;;-141.84;83.96;18996.91;4977176;28;20313;-66
2023/10/21 07:18:35;;;;;;;2.30;1.00;;;13.90;99.90;;;-141.84;84.00;18984.72;4985121;28;20265;-65
2023/10/21 07:21:05;;;;;;;0.90;0.90;;;13.90;99.90;;;-141.84;81.50;19295.63;4980786;28;20234;-66
2023/10/21 07:23:33;;;;;;;0.90;0.90;;;14.10;99.90;;;-141.84;81.11;19348.47;4965258;28;20236;-66
2023/10/21 07:26:03;;;;;;;1.80;0.90;;;14.20;99.90;;;-141.84;79.25;19415.50;4968621;28;20326;-64
2023/10/21 07:28:33;;;;;;;1.00;0.90;;;14.40;99.90;;;-141.84;77.44;19521.19;4984764;28;20249;-65
2023/10/21 07:31:01;;;;;;;1.45;0.90;;;14.60;99.90;;;-141.84;77.68;19511.03;4984772;28;20773;-66
2023/10/21 07:33:30;;;;;;;2.08;0.82;;;14.70;99.90;;;-141.84;77.06;19572.00;4984617;28;20251;-65
2023/10/21 07:35:58;;;;;;;0.93;0.70;;;14.70;99.90;;;-141.84;76.66;19606.53;4957326;28;20232;-66
2023/10/21 07:38:26;;;;;;;1.27;0.82;;;14.80;99.90;;;-141.84;76.66;19592.31;4978108;28;20264;-66
2023/10/21 07:40:56;;;;;;;1.10;1.00;;;14.90;99.90;;;-141.84;76.63;19561.84;4983939;28;20321;-66
2023/10/21 07:43:25;;;;;;;2.38;0.75;;;14.90;99.90;;;-141.84;75.56;19620.78;4984170;28;20231;-66
2023/10/21 07:45:54;;;;;;;1.15;0.90;;;14.90;99.90;;;-141.84;75.58;19600.44;4982424;28;20255;-66
2023/10/21 07:48:22;;;;;;;0.77;0.77;;;15.00;99.90;;;-141.84;75.43;19663.44;4984174;28;20227;-66
2023/10/21 07:50:54;;;;;;;0.77;0.77;;;15.10;99.90;;;-141.84;74.55;19675.63;4983922;28;20312;-66
2023/10/21 07:53:22;;;;;;;1.60;0.90;;;15.20;99.90;;;-141.84;74.95;19657.34;4975605;28;20232;-66
2023/10/21 07:55:51;;;;;;;0.80;0.70;;;15.20;99.90;;;-141.84;74.13;19691.91;4976510;28;20231;-65
2023/10/21 07:58:19;;;;;;;1.55;0.70;;;15.30;99.90;;;-141.84;74.51;19710.19;4977947;28;20266;-66
2023/10/21 08:00:48;;;;;;;0.88;0.80;;;15.30;99.90;;;-141.84;74.15;19710.19;4984275;28;20247;-68
2023/10/21 08:03:16;;;;;;;1.67;0.70;;;15.30;99.90;;;-141.84;74.01;19722.38;4984361;28;20294;-66
2023/10/21 08:05:45;;;;;;;1.27;1.00;;;15.40;99.90;;;-141.84;73.82;19716.28;4983991;28;20845;-66
2023/10/21 08:08:13;;;;;;;1.00;0.90;;;15.40;99.90;;;-141.84;73.62;19752.88;4976728;28;20465;-65
2023/10/21 08:10:42;;;;;;;1.00;0.90;;;15.50;99.90;;;-141.84;73.38;19787.41;4983412;28;20243;-66
2023/10/21 08:13:10;;;;;;;1.23;0.65;;;15.60;99.90;;;-141.84;72.66;19781.31;4983860;28;20767;-65
2023/10/21 08:15:38;;;;;;;2.13;0.80;;;15.60;99.90;;;-141.84;72.99;19767.09;4984181;28;20246;-66
2023/10/21 08:18:08;;;;;;;0.70;0.70;;;15.60;99.90;;;-141.84;72.98;19785.38;4975567;28;20223;-60
2023/10/21 08:20:37;;;;;;;0.85;0.85;;;15.60;99.90;;;-141.84;72.29;19836.19;4982850;28;20241;-61
2023/10/21 08:23:07;;;;;;;1.55;0.88;;;15.70;99.90;;;-141.84;72.39;19813.84;4964328;28;20314;-60
2023/10/21 08:25:36;;;;;;;1.27;0.85;;;15.80;99.90;;;-141.84;71.64;19858.56;4974024;28;20243;-60
2023/10/21 08:28:07;;;;;;;2.67;0.80;;;15.90;99.90;;;-141.84;70.90;19882.94;4976041;28;20581;-59
2023/10/21 08:30:36;;;;;;;1.42;0.70;;;16.00;99.90;;;-141.84;70.78;19876.84;4983450;28;20223;-61
2023/10/21 08:33:07;;;;;;;2.08;0.65;;;16.10;99.90;;;-141.84;70.55;19901.22;4983162;28;20286;-60
2023/10/21 08:35:35;;;;;;;2.35;1.00;;;16.10;99.90;;;-141.84;71.29;19842.28;4983795;28;20243;-61
2023/10/21 08:38:04;;;;;;;0.88;0.70;;;16.00;99.90;;;-141.84;70.99;19878.88;4975379;28;20250;-61
2023/10/21 08:40:36;;;;;;;1.98;0.80;;;16.10;99.90;;;-141.84;71.14;19903.25;4983289;28;20235;-61
2023/10/21 08:43:05;;;;;;;1.50;0.70;;;16.10;99.90;;;-141.84;70.66;19884.97;4982612;28;20648;-59
2023/10/21 08:45:35;;;;;;;0.80;0.80;;;16.20;99.90;;;-141.84;71.04;19884.97;4981770;28;20211;-61
2023/10/21 08:48:10;;;;;;;2.40;0.75;;;16.20;99.90;;;-141.84;71.06;19864.66;4962956;28;20231;-62
2023/10/21 08:50:40;;;;;;;0.80;0.75;;;16.20;99.90;;;-141.84;70.14;19909.34;4978994;28;20728;-61
2023/10/21 08:53:12;;;;;;;1.75;0.60;;;16.40;99.90;;;-141.84;71.20;19935.78;4976769;28;20232;-60
2023/10/21 08:55:40;;;;;;;1.48;0.80;;;16.40;99.90;;;-141.84;70.57;20000.81;4979844;28;20231;-62
2023/10/21 08:58:08;;;;;;;2.45;0.80;;;16.50;99.90;;;-141.84;68.53;20039.44;4970533;28;20223;-61
2023/10/21 09:00:38;;;;;;;0.77;0.77;;;16.80;99.90;;;-141.84;68.55;20053.66;4980188;28;20226;-62
2023/10/21 09:03:08;;;;;;;1.25;0.70;;;17.00;99.90;;;-141.84;68.94;20019.13;4982520;28;20686;-61
2023/10/21 09:06:07;;;;;;;0.98;0.80;;;17.00;99.90;;;-141.84;68.36;20037.41;4983011;28;20227;-61
2023/10/21 09:08:35;;;;;;;1.50;0.70;;;17.00;99.90;;;-141.84;69.78;20002.84;4983003;28;20285;-62
2023/10/21 09:11:06;;;;;;;0.75;0.70;;;16.70;99.90;;;-141.84;69.58;20010.97;4982954;28;20325;-61
2023/10/21 09:13:35;;;;;;;0.75;0.73;;;16.70;99.90;;;-141.84;69.28;19986.59;4982771;28;20662;-60
2023/10/21 09:16:05;;;;;;;2.03;0.88;;;16.60;99.90;;;-141.84;69.83;19970.34;4975058;28;20239;-60
2023/10/21 09:18:37;;;;;;;0.85;0.77;;;16.50;99.90;;;-141.84;70.46;19933.75;4982648;28;20238;-59
2023/10/21 09:21:06;;;;;;;0.82;0.60;;;16.50;99.90;;;-141.84;69.41;20023.19;4983345;28;20255;-60
2023/10/21 09:23:51;;;;;;;0.60;0.60;;;16.50;99.90;;;-141.84;68.89;20092.28;4982915;28;20230;-62
2023/10/21 09:26:19;;;;;;;0.77;0.63;;;16.60;99.90;;;-141.84;69.18;20051.63;4976966;28;20289;-61
2023/10/21 09:28:47;;;;;;;1.15;0.70;;;16.60;99.90;;;-141.84;69.84;20000.81;4982210;28;20224;-60
2023/10/21 09:31:17;;;;;;;3.13;0.80;;;16.50;99.90;;;-141.84;70.76;19964.25;4984269;28;20250;-61
2023/10/21 09:33:56;;;;;;;0.70;0.70;;;16.40;99.90;;;-141.84;71.04;19992.69;4985322;28;20214;-61
2023/10/21 09:36:24;;;;;;;1.90;0.90;;;16.30;99.90;;;-141.84;71.64;19935.78;4987066;28;20211;-60
2023/10/21 09:38:54;;;;;;;7.15;1.30;;;16.20;99.90;;;-141.84;71.62;19935.78;4986584;28;20313;-60
2023/10/21 09:41:24;;;;;;;2.22;1.00;;;16.10;99.90;;;-141.84;72.01;19884.97;4986767;28;20274;-61
2023/10/21 09:43:54;;;;;;;1.75;1.17;;;16.10;99.90;;;-141.84;71.92;19935.78;4986398;28;20306;-60
2023/10/21 09:46:28;;;;;;;3.15;1.38;;;16.10;99.90;;;-141.84;71.32;19960.16;4982363;28;20333;-59
2023/10/21 09:49:03;;;;;;;1.30;1.20;;;16.20;99.90;;;-141.84;71.27;19954.06;4985675;28;20223;-60
2023/10/21 09:51:36;;;;;;;1.95;1.20;;;16.30;99.90;;;-141.84;70.70;20010.97;4986948;28;20290;-60
2023/10/21 09:54:13;;;;;;;0.90;0.80;;;16.40;99.90;;;-141.84;70.70;20021.16;4975548;28;20672;-61
2023/10/21 09:56:44;;;;;;;0.70;0.70;;;16.50;99.90;;;-141.84;70.06;20086.19;4975174;28;20230;-63
2023/10/21 09:59:14;;;;;;;1.55;1.20;;;16.60;99.90;;;-141.84;69.25;20128.88;4974339;28;20273;-60
2023/10/21 10:01:44;;;;;;;1.30;1.15;;;16.70;99.90;;;-141.84;68.75;20108.53;4974681;28;20259;-60